createdAt,value
2023-09-14T00:01:40.286Z,11.77
2023-09-14T00:04:42.311Z,12.38
2023-09-14T00:07:44.270Z,11.82
2023-09-14T00:10:46.147Z,12.55
2023-09-14T00:13:48.030Z,11.68
2023-09-14T00:16:50.008Z,12.20
2023-09-14T00:19:51.911Z,11.23
2023-09-14T00:22:56.347Z,12.90
2023-09-14T00:25:58.316Z,10.23
2023-09-14T00:29:00.346Z,10.23
2023-09-14T00:32:02.290Z,9.23
2023-09-14T00:35:04.369Z,10.80
2023-09-14T00:38:06.568Z,10.23
2023-09-14T00:41:08.761Z,10.75
2023-09-14T00:44:10.628Z,10.00
2023-09-14T00:47:12.595Z,10.25
2023-09-14T00:50:18.901Z,9.98
2023-09-14T00:53:21.616Z,9.98
2023-09-14T00:56:24.519Z,10.25
2023-09-14T00:59:27.521Z,9.13
2023-09-14T01:02:29.451Z,9.68
2023-09-14T01:05:32.724Z,9.93
2023-09-14T01:08:35.588Z,9.45
2023-09-14T01:11:37.621Z,9.68
2023-09-14T01:14:50.212Z,9.57
2023-09-14T01:18:20.891Z,9.10
2023-09-14T01:21:31.997Z,9.70
2023-09-14T01:24:42.064Z,9.80
2023-09-14T01:27:45.454Z,10.88
2023-09-14T01:30:47.396Z,10.05
2023-09-14T01:33:50.204Z,9.80
2023-09-14T01:37:01.018Z,9.93
2023-09-14T01:40:10.254Z,10.10
2023-09-14T01:43:13.814Z,9.93
2023-09-14T01:46:16.212Z,9.45
2023-09-14T01:49:18.353Z,9.02
2023-09-14T01:52:20.427Z,10.05
2023-09-14T01:55:22.312Z,8.95
2023-09-14T01:58:24.370Z,8.50
2023-09-14T02:01:27.049Z,8.70
2023-09-14T02:04:29.096Z,9.43
2023-09-14T02:07:30.983Z,8.68
2023-09-14T02:10:32.849Z,8.13
2023-09-14T02:13:36.104Z,8.95
2023-09-14T02:16:37.966Z,8.88
2023-09-14T02:19:39.856Z,8.23
2023-09-14T02:22:41.755Z,8.73
2023-09-14T02:25:44.585Z,8.48
2023-09-14T02:28:46.561Z,9.18
2023-09-14T02:31:48.968Z,8.25
2023-09-14T02:34:51.035Z,8.68
2023-09-14T02:37:53.048Z,9.27
2023-09-14T02:40:54.922Z,8.48
2023-09-14T02:43:57.518Z,8.63
2023-09-14T02:46:59.913Z,8.40
2023-09-14T02:50:02.036Z,8.38
2023-09-14T02:53:04.133Z,8.35
2023-09-14T02:56:10.877Z,7.65
2023-09-14T02:59:16.567Z,7.25
2023-09-14T03:02:18.589Z,7.88
2023-09-14T03:05:20.802Z,8.00
2023-09-14T03:08:22.787Z,7.80
2023-09-14T03:11:25.121Z,8.05
2023-09-14T03:14:27.387Z,8.18
2023-09-14T03:17:29.393Z,8.15
2023-09-14T03:20:31.404Z,8.60
2023-09-14T03:23:33.404Z,8.40
2023-09-14T03:26:35.428Z,8.15
2023-09-14T03:29:37.373Z,8.57
2023-09-14T03:32:39.497Z,7.03
2023-09-14T03:35:44.545Z,7.75
2023-09-14T03:38:47.036Z,7.80
2023-09-14T03:41:50.444Z,8.43
2023-09-14T03:44:52.416Z,7.43
2023-09-14T03:47:56.778Z,7.65
2023-09-14T03:51:00.873Z,7.95
2023-09-14T03:54:02.771Z,7.97
2023-09-14T03:57:05.331Z,9.07
2023-09-14T04:00:12.321Z,8.00
2023-09-14T04:03:21.484Z,8.05
2023-09-14T04:06:23.579Z,7.85
2023-09-14T04:09:26.968Z,8.38
2023-09-14T04:12:28.855Z,8.60
2023-09-14T04:15:32.732Z,9.10
2023-09-14T04:18:36.742Z,8.40
2023-09-14T04:21:38.997Z,9.10
2023-09-14T04:24:41.143Z,8.45
2023-09-14T04:27:42.981Z,8.20
2023-09-14T04:30:48.483Z,8.63
2023-09-14T04:33:50.820Z,8.57
2023-09-14T04:36:52.819Z,8.73
2023-09-14T04:39:54.819Z,8.82
2023-09-14T04:42:56.756Z,10.02
2023-09-14T04:45:58.721Z,9.40
2023-09-14T04:49:01.592Z,8.90
2023-09-14T04:52:04.619Z,8.23
2023-09-14T04:55:07.131Z,9.32
2023-09-14T04:58:09.093Z,9.35
2023-09-14T05:01:11.167Z,8.98
2023-09-14T05:04:16.320Z,9.55
2023-09-14T05:07:18.393Z,9.13
2023-09-14T05:10:20.412Z,8.43
2023-09-14T05:13:22.519Z,7.63
2023-09-14T05:16:24.582Z,8.70
2023-09-14T05:19:26.782Z,9.27
2023-09-14T05:22:29.496Z,9.05
2023-09-14T05:25:31.909Z,10.00
2023-09-14T05:28:33.813Z,10.02
2023-09-14T05:31:36.197Z,9.80
2023-09-14T05:34:38.605Z,9.68
2023-09-14T05:37:40.556Z,10.32
2023-09-14T05:40:42.552Z,10.20
2023-09-14T05:43:44.433Z,9.52
2023-09-14T05:46:46.591Z,9.35
2023-09-14T05:49:48.917Z,8.30
2023-09-14T05:52:51.650Z,9.68
2023-09-14T05:55:56.150Z,9.57
2023-09-14T05:58:58.427Z,9.93
2023-09-14T06:02:01.916Z,8.88
2023-09-14T06:05:21.072Z,10.30
2023-09-14T06:08:25.914Z,10.30
2023-09-14T06:11:28.923Z,10.00
2023-09-14T06:14:31.020Z,9.60
2023-09-14T06:17:32.887Z,9.63
2023-09-14T06:20:35.075Z,8.75
2023-09-14T06:23:36.949Z,8.70
2023-09-14T06:26:39.580Z,9.70
2023-09-14T06:29:41.427Z,9.32
2023-09-14T06:32:46.437Z,9.25
2023-09-14T06:35:48.416Z,9.10
2023-09-14T06:38:50.251Z,8.77
2023-09-14T06:41:52.167Z,9.35
2023-09-14T06:44:54.127Z,8.35
2023-09-14T06:47:55.972Z,8.45
2023-09-14T06:50:58.036Z,7.60
2023-09-14T06:53:59.864Z,8.10
2023-09-14T06:57:01.788Z,8.43
2023-09-14T07:00:09.470Z,7.93
2023-09-14T07:06:13.486Z,8.45
2023-09-14T07:09:15.417Z,7.53
2023-09-14T07:12:18.477Z,8.45
2023-09-14T07:15:20.298Z,8.52
2023-09-14T07:18:30.945Z,8.55
2023-09-14T07:21:38.802Z,10.65
2023-09-14T07:24:40.787Z,9.05
2023-09-14T07:27:42.874Z,9.00
2023-09-14T07:30:44.771Z,8.68
2023-09-14T07:33:47.248Z,9.20
2023-09-14T07:36:49.365Z,9.13
2023-09-14T07:39:51.333Z,9.82
2023-09-14T07:42:53.225Z,9.32
2023-09-14T07:45:56.969Z,9.30
2023-09-14T07:48:59.053Z,9.50
2023-09-14T07:52:01.042Z,10.88
2023-09-14T07:55:05.560Z,9.98
2023-09-14T07:58:07.920Z,10.18
2023-09-14T08:01:10.098Z,10.43
2023-09-14T08:04:12.377Z,10.05
2023-09-14T08:07:16.117Z,11.32
2023-09-14T08:10:18.114Z,10.25
2023-09-14T08:13:21.014Z,9.98
2023-09-14T08:16:24.704Z,12.75
2023-09-14T08:19:26.704Z,13.32
2023-09-14T08:22:28.818Z,12.15
2023-09-14T08:25:30.717Z,13.05
2023-09-14T08:28:32.698Z,13.43
2023-09-14T08:31:34.661Z,13.65
2023-09-14T08:34:36.600Z,13.60
2023-09-14T08:37:38.533Z,13.15
2023-09-14T08:40:42.681Z,13.00
2023-09-14T08:43:46.718Z,12.25
2023-09-14T08:46:50.006Z,13.55
2023-09-14T08:49:54.347Z,13.85
2023-09-14T08:52:56.559Z,15.05
2023-09-14T08:55:58.549Z,13.75
2023-09-14T08:59:03.305Z,14.55
2023-09-14T09:02:08.868Z,13.35
2023-09-14T09:05:12.797Z,13.73
2023-09-14T09:08:16.960Z,14.57
2023-09-14T09:11:18.982Z,13.85
2023-09-14T09:14:20.840Z,13.80
2023-09-14T09:17:22.819Z,13.73
2023-09-14T09:20:24.901Z,11.93
2023-09-14T09:23:27.103Z,11.13
2023-09-14T09:26:41.574Z,10.77
2023-09-14T09:29:45.314Z,12.13
2023-09-14T09:32:56.398Z,12.27
2023-09-14T09:35:59.777Z,12.70
2023-09-14T09:39:06.114Z,13.57
2023-09-14T09:42:09.655Z,16.30
2023-09-14T09:45:12.499Z,14.68
2023-09-14T09:48:15.317Z,10.75
2023-09-14T09:51:23.304Z,10.02
2023-09-14T09:54:26.139Z,10.48
2023-09-14T09:57:32.833Z,10.40
2023-09-14T10:00:38.044Z,9.57
2023-09-14T10:03:40.290Z,9.20
2023-09-14T10:06:45.177Z,9.65
2023-09-14T10:09:47.603Z,10.38
2023-09-14T10:12:49.775Z,10.35
2023-09-14T10:15:56.733Z,9.52
2023-09-14T10:18:59.523Z,9.35
2023-09-14T10:22:01.835Z,10.15
2023-09-14T10:25:06.038Z,10.40
2023-09-14T10:28:08.885Z,9.93
2023-09-14T10:31:12.529Z,9.73
2023-09-14T10:34:15.902Z,9.70
2023-09-14T10:37:20.585Z,9.93
2023-09-14T10:40:22.936Z,11.10
2023-09-14T10:43:25.156Z,10.38
2023-09-14T10:46:35.165Z,10.20
2023-09-14T10:49:38.044Z,10.32
2023-09-14T10:52:41.715Z,10.65
2023-09-14T10:55:43.771Z,9.70
2023-09-14T10:58:46.252Z,10.20
2023-09-14T11:05:17.097Z,9.70
2023-09-14T11:08:21.202Z,9.60
2023-09-14T11:11:39.718Z,11.38
2023-09-14T11:15:16.859Z,10.60
2023-09-14T11:18:19.263Z,9.88
2023-09-14T11:21:34.714Z,18.83
2023-09-14T11:24:39.648Z,11.18
2023-09-14T11:27:43.844Z,10.00
2023-09-14T11:30:50.156Z,10.27
2023-09-14T11:33:55.848Z,11.55
2023-09-14T11:37:06.933Z,10.43
2023-09-14T11:40:20.699Z,10.45
2023-09-14T11:43:44.411Z,11.45
2023-09-14T11:46:52.657Z,10.68
2023-09-14T11:49:58.913Z,11.85
2023-09-14T11:53:01.782Z,10.38
2023-09-14T11:56:04.440Z,10.55
2023-09-14T11:59:06.320Z,11.30
2023-09-14T12:02:09.764Z,10.68
2023-09-14T12:05:11.649Z,10.45
2023-09-14T12:08:15.557Z,10.60
2023-09-14T12:11:17.729Z,11.00
2023-09-14T12:14:19.569Z,10.95
2023-09-14T12:17:26.490Z,10.55
2023-09-14T12:20:29.563Z,11.85
2023-09-14T12:23:33.686Z,10.55
2023-09-14T12:26:35.958Z,11.65
2023-09-14T12:29:38.107Z,11.10
2023-09-14T12:32:40.757Z,11.18
2023-09-14T12:35:43.662Z,10.70
2023-09-14T12:38:48.398Z,10.88
2023-09-14T12:41:53.673Z,11.70
2023-09-14T12:44:55.748Z,11.13
2023-09-14T12:47:57.876Z,10.07
2023-09-14T12:51:04.343Z,9.55
2023-09-14T12:54:06.482Z,10.15
2023-09-14T12:57:16.057Z,10.30
2023-09-14T13:00:21.271Z,8.93
2023-09-14T13:03:23.589Z,10.40
2023-09-14T13:06:26.008Z,9.57
2023-09-14T13:09:27.998Z,9.35
2023-09-14T13:12:30.100Z,10.55
2023-09-14T13:15:33.057Z,9.20
2023-09-14T13:18:34.983Z,8.93
2023-09-14T13:21:37.095Z,9.27
2023-09-14T13:24:39.144Z,9.50
2023-09-14T13:27:43.978Z,10.82
2023-09-14T13:30:47.116Z,9.30
2023-09-14T13:33:49.070Z,8.35
2023-09-14T13:36:54.061Z,6.90
2023-09-14T13:39:57.092Z,7.10
2023-09-14T13:43:00.578Z,7.35
2023-09-14T13:46:03.397Z,6.22
2023-09-14T13:49:05.948Z,6.22
2023-09-14T13:52:07.811Z,5.78
2023-09-14T13:55:11.245Z,5.53
2023-09-14T13:58:13.364Z,5.35
2023-09-14T14:01:15.420Z,5.13
2023-09-14T14:04:17.326Z,5.00
2023-09-14T14:07:19.748Z,5.35
2023-09-14T14:10:21.536Z,5.15
2023-09-14T14:13:23.434Z,4.93
2023-09-14T14:16:25.312Z,6.40
2023-09-14T14:19:27.347Z,6.30
2023-09-14T14:22:29.861Z,4.03
2023-09-14T14:25:31.860Z,2.90
2023-09-14T14:28:33.688Z,2.55
2023-09-14T14:31:35.951Z,2.50
2023-09-14T14:34:38.376Z,2.17
2023-09-14T14:37:40.337Z,1.80
2023-09-14T14:41:16.978Z,1.90
2023-09-14T14:44:04.288Z,1.70
2023-09-14T14:47:06.391Z,1.70
2023-09-14T14:50:08.736Z,1.90
2023-09-14T14:53:11.681Z,1.60
2023-09-14T14:56:13.540Z,1.50
2023-09-14T14:59:15.340Z,1.60
2023-09-14T15:02:17.197Z,1.60
2023-09-14T15:05:19.291Z,1.50
2023-09-14T15:08:21.371Z,1.50
2023-09-14T15:11:23.542Z,1.55
2023-09-14T15:14:25.490Z,1.33
2023-09-14T15:17:27.867Z,1.30
2023-09-14T15:20:29.933Z,1.17
2023-09-14T15:23:31.878Z,1.90
2023-09-14T15:26:33.787Z,1.30
2023-09-14T15:29:36.454Z,1.15
2023-09-14T15:32:43.012Z,1.10
2023-09-14T15:35:44.877Z,1.45
2023-09-14T15:38:46.997Z,1.38
2023-09-14T15:41:51.620Z,1.27
2023-09-14T15:44:53.513Z,1.10
2023-09-14T15:47:56.694Z,1.20
2023-09-14T15:50:59.008Z,1.30
2023-09-14T15:54:00.895Z,1.00
2023-09-14T15:57:03.196Z,1.00
2023-09-14T16:00:05.617Z,1.00
2023-09-14T16:03:13.075Z,0.88
2023-09-14T16:06:17.434Z,1.08
2023-09-14T16:09:19.412Z,1.10
2023-09-14T16:12:21.325Z,1.10
2023-09-14T16:15:23.253Z,1.20
2023-09-14T16:18:25.218Z,1.00
2023-09-14T16:21:27.195Z,1.20
2023-09-14T16:24:29.135Z,1.08
2023-09-14T16:27:31.110Z,0.85
2023-09-14T16:30:34.564Z,1.00
2023-09-14T16:33:36.438Z,1.00
2023-09-14T16:36:39.624Z,1.00
2023-09-14T16:39:41.613Z,0.88
2023-09-14T16:42:43.793Z,1.00
2023-09-14T16:45:46.758Z,0.85
2023-09-14T16:48:50.412Z,0.95
2023-09-14T16:51:53.665Z,1.00
2023-09-14T16:54:58.699Z,1.00
2023-09-14T16:58:00.900Z,1.20
2023-09-14T17:01:02.919Z,0.98
2023-09-14T17:04:08.329Z,1.23
2023-09-14T17:07:11.182Z,0.95
2023-09-14T17:10:13.224Z,0.90
2023-09-14T17:13:17.915Z,0.80
2023-09-14T17:16:19.961Z,0.93
2023-09-14T17:19:22.805Z,0.88
2023-09-14T17:22:26.745Z,0.80
2023-09-14T17:25:28.655Z,0.90
2023-09-14T17:28:30.538Z,0.90
2023-09-14T17:31:32.431Z,0.80
2023-09-14T17:34:35.375Z,0.85
2023-09-14T17:37:37.868Z,0.93
2023-09-14T17:40:39.749Z,0.90
2023-09-14T17:43:41.865Z,1.20
2023-09-14T17:46:43.983Z,1.10
2023-09-14T17:49:45.838Z,1.60
2023-09-14T17:52:47.841Z,1.40
2023-09-14T17:55:53.888Z,1.13
2023-09-14T17:58:55.765Z,1.17
2023-09-14T18:01:59.431Z,1.10
2023-09-14T18:05:01.454Z,1.30
2023-09-14T18:08:04.795Z,1.20
2023-09-14T18:11:06.662Z,1.40
2023-09-14T18:14:08.508Z,1.17
2023-09-14T18:17:10.393Z,1.10
2023-09-14T18:20:12.882Z,1.20
2023-09-14T18:23:14.747Z,1.40
2023-09-14T18:26:16.709Z,1.40
2023-09-14T18:29:18.864Z,1.10
2023-09-14T18:32:20.729Z,1.38
2023-09-14T18:35:22.929Z,1.40
2023-09-14T18:38:25.805Z,1.30
2023-09-14T18:41:30.028Z,1.30
2023-09-14T18:44:32.157Z,1.30
2023-09-14T18:47:36.616Z,1.50
2023-09-14T18:50:39.178Z,1.88
2023-09-14T18:53:43.203Z,1.80
2023-09-14T18:56:45.038Z,1.65
2023-09-14T18:59:47.007Z,1.65
2023-09-14T19:02:49.022Z,1.85
2023-09-14T19:05:54.027Z,1.60
2023-09-14T19:08:57.340Z,1.60
2023-09-14T19:11:59.373Z,1.73
2023-09-14T19:15:01.343Z,1.80
2023-09-14T19:18:05.561Z,2.20
2023-09-14T19:21:09.351Z,2.00
2023-09-14T19:24:11.234Z,3.08
2023-09-14T19:27:13.165Z,1.80
2023-09-14T19:30:15.544Z,1.80
2023-09-14T19:33:17.488Z,1.60
2023-09-14T19:36:24.215Z,1.70
2023-09-14T19:39:26.042Z,1.80
2023-09-14T19:42:27.906Z,1.73
2023-09-14T19:45:29.867Z,1.98
2023-09-14T19:48:31.897Z,1.95
2023-09-14T19:51:33.910Z,1.90
2023-09-14T19:54:36.172Z,1.90
2023-09-14T19:57:38.445Z,1.90
2023-09-14T20:00:41.349Z,1.83
2023-09-14T20:03:44.900Z,1.98
2023-09-14T20:06:46.858Z,2.03
2023-09-14T20:09:49.231Z,1.80
2023-09-14T20:12:51.234Z,2.00
2023-09-14T20:15:53.456Z,1.80
2023-09-14T20:18:55.584Z,2.22
2023-09-14T20:21:57.716Z,2.05
2023-09-14T20:24:59.757Z,1.83
2023-09-14T20:28:01.792Z,2.00
2023-09-14T20:31:04.778Z,2.13
2023-09-14T20:34:07.277Z,2.20
2023-09-14T20:37:09.449Z,2.00
2023-09-14T20:40:18.834Z,1.90
2023-09-14T20:43:20.671Z,2.33
2023-09-14T20:46:25.955Z,1.90
2023-09-14T20:49:29.745Z,2.20
2023-09-14T20:52:31.615Z,2.08
2023-09-14T20:55:34.794Z,1.85
2023-09-14T20:58:37.332Z,1.95
2023-09-14T21:01:39.498Z,1.70
2023-09-14T21:04:41.517Z,1.90
2023-09-14T21:07:43.748Z,1.80
2023-09-14T21:10:45.613Z,2.00
2023-09-14T21:13:47.471Z,2.03
2023-09-14T21:16:51.905Z,1.90
2023-09-14T21:19:57.036Z,1.73
2023-09-14T21:22:59.104Z,2.00
2023-09-14T21:26:01.103Z,2.10
2023-09-14T21:29:02.999Z,1.70
2023-09-14T21:32:05.135Z,1.90
2023-09-14T21:35:07.861Z,2.10
2023-09-14T21:38:09.938Z,1.77
2023-09-14T21:41:11.775Z,1.70
2023-09-14T21:44:13.537Z,1.67
2023-09-14T21:47:15.880Z,1.88
2023-09-14T21:50:17.976Z,2.53
2023-09-14T21:53:22.065Z,2.30
2023-09-14T21:56:24.236Z,1.70
2023-09-14T21:59:26.175Z,1.63
2023-09-14T22:02:32.097Z,1.88
2023-09-14T22:05:37.678Z,1.98
2023-09-14T22:08:39.558Z,2.10
2023-09-14T22:11:41.539Z,2.15
2023-09-14T22:14:43.392Z,2.20
2023-09-14T22:17:45.527Z,1.90
2023-09-14T22:20:47.312Z,1.98
2023-09-14T22:23:49.214Z,1.83
2023-09-14T22:26:51.506Z,1.77
2023-09-14T22:29:54.584Z,1.90
2023-09-14T22:32:56.852Z,1.88
2023-09-14T22:35:58.799Z,2.20
2023-09-14T22:39:00.565Z,2.00
2023-09-14T22:42:02.432Z,2.05
2023-09-14T22:45:07.267Z,1.85
2023-09-14T22:48:09.140Z,1.85
2023-09-14T22:51:14.814Z,1.88
2023-09-14T22:54:16.755Z,1.60
2023-09-14T22:57:18.560Z,1.95
2023-09-14T23:00:20.596Z,1.63
2023-09-14T23:03:22.494Z,1.63
2023-09-14T23:06:24.962Z,1.75
2023-09-14T23:09:26.926Z,1.60
2023-09-14T23:12:29.427Z,1.65
2023-09-14T23:15:31.400Z,1.58
2023-09-14T23:18:33.510Z,1.67
2023-09-14T23:21:35.411Z,1.55
2023-09-14T23:24:38.713Z,1.40
2023-09-14T23:27:46.769Z,1.75
2023-09-14T23:30:50.056Z,1.50
2023-09-14T23:33:52.042Z,1.48
2023-09-14T23:36:53.989Z,1.63
2023-09-14T23:39:58.028Z,1.50
2023-09-14T23:43:01.383Z,1.55
2023-09-14T23:46:04.988Z,1.40
2023-09-14T23:49:09.500Z,1.40
2023-09-14T23:52:11.754Z,1.60
2023-09-14T23:55:14.786Z,1.48
2023-09-14T23:58:17.589Z,1.52
